TimeEST,TemperatureF,Dew PointF,Humidity,Sea Level PressureIn,VisibilityMPH,Wind Direction,Wind SpeedMPH,Gust SpeedMPH,PrecipitationIn,Events,Conditions,WindDirDegrees,DateUTC
12:56 AM,37.9,34.0,86,30.13,10.0,NE,9.2,-,N/A,,Overcast,50,2012-12-09 05:56:00
2:56 AM,37.0,32.0,82,30.15,10.0,ENE,11.5,-,N/A,,Overcast,70,2012-12-09 07:56:00
3:56 AM,36.0,32.0,86,30.16,10.0,East,9.2,-,N/A,,Overcast,80,2012-12-09 08:56:00
4:56 AM,36.0,30.9,82,30.14,10.0,East,11.5,-,N/A,,Overcast,80,2012-12-09 09:56:00
5:56 AM,36.0,30.9,82,30.14,10.0,East,11.5,-,N/A,,Overcast,80,2012-12-09 10:56:00
6:27 AM,35.6,30.2,81,30.13,10.0,East,8.1,-,N/A,,Overcast,80,2012-12-09 11:27:00
6:56 AM,36.0,32.0,86,30.15,10.0,East,8.1,-,N/A,,Overcast,90,2012-12-09 11:56:00
7:56 AM,36.0,32.0,86,30.13,10.0,East,9.2,-,N/A,,Overcast,90,2012-12-09 12:56:00
8:56 AM,37.0,33.1,86,30.12,10.0,East,9.2,-,N/A,,Overcast,100,2012-12-09 13:56:00
9:56 AM,37.9,34.0,86,30.09,10.0,East,11.5,-,N/A,,Overcast,100,2012-12-09 14:56:00
10:56 AM,39.9,35.1,83,30.07,10.0,ESE,6.9,-,N/A,,Overcast,120,2012-12-09 15:56:00
11:56 AM,41.0,36.0,82,30.03,10.0,SE,9.2,-,N/A,,Overcast,130,2012-12-09 16:56:00
12:14 PM,41.0,35.6,81,29.99,10.0,SE,13.8,-,N/A,,Overcast,140,2012-12-09 17:14:00
12:56 PM,42.1,37.9,85,29.99,10.0,SE,12.7,-,N/A,,Overcast,140,2012-12-09 17:56:00
1:56 PM,43.0,39.0,86,29.95,9.0,SE,10.4,-,0.00,,Overcast,130,2012-12-09 18:56:00
2:56 PM,42.1,39.9,92,29.91,4.0,ESE,8.1,-,0.02,Rain,Light Rain,120,2012-12-09 19:56:00
3:06 PM,42.8,39.2,87,29.88,2.0,SE,12.7,-,0.03,Rain,Rain,130,2012-12-09 20:06:00
3:16 PM,42.8,39.2,87,29.88,7.0,SE,10.4,-,0.03,Rain,Light Rain,130,2012-12-09 20:16:00
3:46 PM,42.8,41.0,93,29.87,7.0,SE,10.4,-,0.03,,Overcast,140,2012-12-09 20:46:00
3:56 PM,43.0,42.1,97,29.89,7.0,SSE,9.2,-,0.03,,Overcast,150,2012-12-09 20:56:00
4:56 PM,44.1,43.0,96,29.86,8.0,SSE,6.9,-,0.00,Rain,Light Rain,160,2012-12-09 21:56:00
5:19 PM,44.6,44.6,100,29.83,7.0,SSE,9.2,-,0.00,,Overcast,160,2012-12-09 22:19:00
5:56 PM,46.9,46.0,97,29.84,5.0,South,11.5,-,0.00,,Overcast,180,2012-12-09 22:56:00
6:20 PM,46.4,46.4,100,29.82,2.0,South,11.5,-,N/A,,Overcast,190,2012-12-09 23:20:00
6:30 PM,46.4,46.4,100,29.82,1.5,SSW,10.4,-,N/A,,Overcast,200,2012-12-09 23:30:00
6:56 PM,48.0,48.0,100,29.83,1.8,SSW,9.2,-,N/A,,Overcast,210,2012-12-09 23:56:00
7:02 PM,48.2,48.2,100,29.81,3.0,SSW,11.5,-,N/A,,Overcast,200,2012-12-10 00:02:00
7:33 PM,48.2,48.2,100,29.80,2.5,SSW,9.2,-,0.00,Rain,Light Rain,210,2012-12-10 00:33:00
7:56 PM,50.0,48.9,96,29.81,3.0,SSW,11.5,-,0.00,Rain,Light Rain,210,2012-12-10 00:56:00
8:11 PM,50.0,50.0,100,29.79,2.0,SSW,11.5,-,0.00,,Overcast,210,2012-12-10 01:11:00
8:56 PM,51.1,51.1,100,29.78,3.0,SSW,9.2,-,0.00,Rain,Light Rain,200,2012-12-10 01:56:00
9:56 PM,53.1,52.0,96,29.75,5.0,SSW,9.2,-,0.04,Rain,Light Rain,210,2012-12-10 02:56:00
10:17 PM,53.6,51.8,94,29.72,4.0,SSW,10.4,-,0.06,Rain,Rain,200,2012-12-10 03:17:00
10:36 PM,53.6,53.6,100,29.71,4.0,South,12.7,-,0.11,Rain,Rain,190,2012-12-10 03:36:00
10:56 PM,54.0,53.1,97,29.72,4.0,South,12.7,-,0.14,Rain,Rain,190,2012-12-10 03:56:00
11:54 PM,53.6,53.6,100,29.68,2.5,South,6.9,-,0.10,Rain,Rain,180,2012-12-10 04:54:00
11:56 PM,54.0,53.1,97,29.69,3.0,South,5.8,-,0.10,Rain,Rain,180,2012-12-10 04:56:00